ADDS METAR Data INFO
IDs: Format: Raw Decoded Include TAF

Data at: 0847 UTC 27 Jun 2017

KELP 270751Z VRB03KT 10SM FEW055 SCT120 BKN220 23/13 A3012 RMK AO2 RAE0653 SLP125 CONS LTGICCCCG DSNT SE-S CB DSNT SE-S MOV S P0000 T02330133
KELP 270651Z 10012G21KT 10SM -RA FEW055 SCT130 BKN220 23/15 A3014 RMK AO2 LTG DSNT SE RAB11E32B41 TSE34 SLP134 CONS LTGICCCCG DSNT E-SE-S CB DSNT E-SE-S MOV S P0000 T02330150 403390217
KELP 270635Z 11016G21KT 10SM FEW055 SCT130 BKN220 24/14 A3014 RMK AO2 LTG DSNT E AND SE RAB11E32 TSE34 FRQ LTGICCCCG DSNT E-SE-S CB DSNT E-SE-S MOV S P0000 T02390144
KELP 270551Z 09009KT 10SM TS SCT080CB SCT200 27/15 A3013 RMK AO2 LTG DSNT NE-S RAE22 TSE22E44B50 SLP126 OCNL LTGICCCCG NW-N AND DSNT NE-E AND S TS NW-N MOV LTL CB DSNT NE-E AND S P0000 60000 T02670150 10339
KELP 270528Z 09006KT 10SM SCT080 SCT200 26/16 A3011 RMK AO2 LTG DSNT NE-S RAE22 TSE22 CONS LTGICCCCG DSNT NE-E AND CB DSNT NE-E AND S P0000 T02610156
KELP 270451Z 18006KT 10SM -TSRA BKN080CB BKN160 26/16 A3010 RMK AO2 LTG DSNT ALQDS RAB13 TSE04B13 SLP118 CONS LTGICCCCG S-SW AND DSNT NE AND W TS S-SW MOV LTL CB DSNT NE AND W P0000 T02560161
KELP 270429Z COR 20012KT 10SM -TSRA BKN090CB BKN160 26/15 A3011 RMK AO2 WSHFT 0411 LTG DSNT ALQDS RAB13 TSE04B13 FRQ LTGICCCCG OHD-S-SW AND DSNT NE TS OHD-S-SW MOV LTL CB DSNT NE MTNS OBSCD SW P0000 T02610150
KELP 270414Z 15011KT 10SM -TSRA BKN100CB BKN180 29/14 A3009 RMK AO2 WSHFT 0400 LTG DSNT NE AND W RAB13 TSE04B13 OCNL LTGICCCCG OHD TS OHD MOV LTL P0000 T02940144
KELP 270351Z 09005KT 10SM SCT100 BKN200 30/17 A3008 RMK AO2 LTG DSNT W SLP111 CONS LTGICCCCG DSNT NE CB DSNT NE T03000167
KELP 270251Z 00000KT 10SM FEW080 SCT120 BKN250 31/14 A3006 RMK AO2 SLP103 CB DSNT E AND S T03110139 53003
KELP 270151Z 01004KT 10SM FEW080 FEW120 BKN250 32/12 A3005 RMK AO2 SLP098 CB DSNT E-SW T03220122
KELP 270051Z 00000KT 10SM FEW080 SCT250 33/11 A3004 RMK AO2 SLP096 CB DSNT SE-SW T03280111
KELP 262351Z VRB04KT 10SM FEW080 SCT250 33/11 A3005 RMK AO2 SLP098 CB DSNT SE AND S T03330111 10339 20272 56020
KELP 262251Z 06008KT 10SM FEW080 FEW250 33/14 A3006 RMK AO2 SLP101 CB DSNT SE AND S T03330139
KELP 262151Z 36006KT 10SM FEW060 SCT250 33/12 A3009 RMK AO2 SLP111 CB DSNT SE AND S T03280122
KELP 262051Z 00000KT 10SM FEW060 SCT250 32/12 A3012 RMK AO2 SLP121 TCU DSNT NE AND NW T03220117 58025
KELP 261951Z 04007KT 10SM FEW060 SCT250 31/16 A3015 RMK AO2 SLP133 CB DSNT NE TCU DSNT SE T03110156
KELP 261851Z 14003KT 10SM FEW055 SCT200 29/16 A3018 RMK AO2 SLP147 T02890156
KELP 261751Z 14004KT 10SM FEW050 SCT180 27/16 A3020 RMK AO2 SLP155 T02720161 10278 20217 58010
KELP 261651Z 11006KT 10SM FEW050 SCT180 26/17 A3021 RMK AO2 SLP160 T02610167
KELP 261551Z 08008KT 10SM FEW040 BKN250 24/17 A3023 RMK AO2 SLP167 T02440172
KELP 261451Z 08009KT 10SM FEW110 BKN250 23/18 A3023 RMK AO2 SLP170 T02330178 53012
KELP 261351Z 09003KT 10SM FEW110 FEW180 BKN250 22/18 A3022 RMK AO2 SLP176 T02220178
KELP 261251Z 08007KT 10SM FEW100 SCT180 BKN230 23/17 A3020 RMK AO2 SLP156 T02280167 $
KELP 261151Z 11003KT 10SM FEW100 SCT180 BKN230 22/18 A3019 RMK AO2 SLP149 70089 T02220178 10239 20222 51009 $
KELP 261051Z 33006KT 10SM FEW110 BKN180 23/17 A3018 RMK AO2 SLP140 T02280167 $
KELP 260951Z 08006KT 10SM FEW110 BKN150 OVC250 23/18 A3018 RMK AO2 SLP140 T02280178 $
KELP 260851Z 20008KT 10SM FEW110 BKN160 OVC250 23/16 A3016 RMK AO2 SLP134 T02330161 58007 $
KELP 260751Z 14003KT 10SM SCT110 BKN160 OVC250 22/18 A3018 RMK AO2 SLP143 T02220183 $
KELP 260651Z 07007KT 10SM FEW130 SCT160 OVC250 22/18 A3018 RMK AO2 SLP143 T02220178 403610183 $
KELP 260551Z 11006KT 10SM FEW130 SCT160 BKN250 23/17 A3018 RMK AO2 PRESFR SLP146 60089 T02280167 10306 20183 50007 $
KELP 260451Z 33012KT 10SM FEW060 SCT130 BKN160 OVC250 24/16 A3024 RMK AO2 PK WND 02026/0405 WSHFT 0414 SLP166 T02440161 $
KELP 260434Z 33009KT 10SM FEW060 SCT130 BKN160 OVC250 24/16 A3025 RMK AO2 PK WND 02026/0405 WSHFT 0414 LTG DSNT N AND NW OCNL LTGIC DSNT NW-N CB DSNT NW-N T02440156 $
KELP 260351Z 34008G21KT 10SM FEW060 SCT110 SCT140 BKN250 24/16 A3020 RMK AO2 LTG DSNT NW TSE0259 SLP153 FRQ LTGICCC DSNT NW-N CB DSNT NW-N T02390156 $
KELP 260300Z 05007KT 10SM FEW060 SCT140 BKN250 24/15 A3016 RMK AO2 TSE0259 OCNL LTGICCG DSNT S-SW AND NW-N CB DSNT S-SW AND NW-N VCSH E-SE T02390150 $
KELP 260251Z COR 05003KT 10SM TS FEW060CB SCT140 BKN250 24/14 A3016 RMK AO2 PK WND 06035/0152 WSHFT 0138 RAE50 SLP141 OCNL LTGICCCCG SE OCNL LTGICCG DSNT S-SW AND NW-N TS SE MOV LTL CB DSNT S-SW AND NW-N VCSH $
KELP 260209Z 07011G27KT 8SM +TSRA BKN060CB BKN140 20/17 A3016 RMK AO2 PK WND 06035/0152 WSHFT 0138 LTG DSNT NE AND E AND SW VIS NE-SE-SW 2 FRQ LTGICCCCG NE-SE-SW TS NE-SE-SW MOV LTL CB DSNT NW-N MTNS OBSCD SW P0 $
KELP 260201Z 08020G35KT 3/4SM +TSRA BR BKN060CB BKN140 19/17 A3016 RMK AO2 PK WND 06035/0152 WSHFT 0138 LTG DSNT NE AND E AND SW OCNL LTGICCCCG OHD-NE TS OHD-NE MOV LTL CB DSNT E-S VIS W 5 MTNS OBSCD SW AND NW P0022 $
KELP 260151Z 07028G45KT 1SM +TSRA BR BKN060CB OVC100 19/17 A3015 RMK AO2 PK WND 09045/0145 WSHFT 0132 RAB21 TSB21 PRESFR SLP149 OCNL LTGICCCCG OHD-NE TS OHD-NE MOV LTL CB DSNT E-S MTNS OBSCD SW-NW P0064 T01890167 $
KELP 260147Z 08030G45KT 1SM +TSRA BR BKN060CB OVC100 19/16 A3016 RMK AO2 PK WND 09045/0145 WSHFT 0132 LTG DSNT NE RAB21 TSB21 OCNL LTGICCCCG OHD-NE TS OHD-NE MOV LTL CB DSNT E-S MTNS OBSCD SW-NW P0047 $
KELP 260144Z 08030G40KT 1SM +TSRA BR BKN060CB OVC100 20/16 A3018 RMK AO2 PK WND 08040/0143 LTG DSNT N AND NE RAB21 TSB21 OCNL LTGICCCCG OHD-NE TS OHD-NE MOV LTL CB DSNT E-S MTNS OBSCD W-NW P0033 T02000161 $
KELP 260138Z 04023G38KT 2SM +TSRA BR BKN060CB BKN250 22/17 A3018 RMK AO2 PK WND 02038/0136 LTG DSNT N AND NE AND SW RAB21 TSB21 OCNL LTGICCCCG OHD-N TS OHD-N MOV LTL CB DSNT NE-S MTNS OBSCD W-NW P0008 T02170167 $
KELP 260125Z COR 02019G22KT 7SM -TSRA FEW060CB SCT100 BKN250 27/15 A3018 RMK AO2 PK WND 07031/0059 LTG DSNT NE AND S RAB21 TSB21 OCNL LTGICCCCG OHD-N TS OHD-N MOV LTL CB DSNT NE-S MTNS PTLY OBSCD W-NW P0000 T02670150 $
KELP 260123Z 03018G22KT 10SM -TSRA FEW060CB SCT100 BKN250 27/14 A3017 RMK AO2 PK WND 07031/0059 LTG DSNT NE AND S RAB21 TSB21 OCNL LTGICCCCG OHD-N TS OHD-N MOV LTL CB DSNT NE-S P0000 T02720144 $
KELP 260051Z 07012G22KT 10SM FEW080CB SCT100 BKN250 28/13 A3012 RMK AO2 PK WND 08028/2352 LTG DSNT N AND NE TSE30 SLP129 CB SW MOV LTL CB DSNT N-S VCSH SW BLDU DSNT N-E T02830128 $
KELP 252351Z 09023G30KT 10SM VCBLDU FEW080 FEW140 SCT250 31/14 A3009 RMK AO2 PK WND 09032/2313 LTG DSNT NE AND E SLP115 CB DSNT N-S VCBLDU N-E T03060144 10361 20300 55010 $
KELP 252320Z 09022G32KT 5SM BLDU FEW090 FEW140 SCT250 32/16 A3007 RMK AO2 PK WND 09032/2313 LTG DSNT NE-SE CB DSNT NE-E AND S MTNS PTLY OBSCD W-NW T03170156 $
KELP 252251Z COR 00000KT 10SM FEW090 FEW140 SCT250 34/14 A3007 RMK AO2 LTG DSNT NE-SE SLP102 CB DSNT NE-E AND S BLDU DSNT NE-E T03440144 $
KELP 252151Z 12007KT 10SM SCT090 SCT250 34/13 A3010 RMK AO2 LTG DSNT NE-S SLP110 CB DSNT N-S T03440128 $
KELP 252051Z COR VRB03KT 10SM SCT080TCU SCT250 34/15 A3013 RMK AO2 SLP124 TCU NE CB DSNT S T03390150 58023 $


Page loaded:  08:47 UTC  |   01:47 AM Pacific  |   02:47 AM Mountain  |   03:47 AM Central  |   04:47 AM Eastern

 

ADVISORIES

FORECASTS

FORECASTS

OBSERVATIONS

USER TOOLS

ABOUT US